createdAt,value
2017-09-04T00:01:59.471Z,100791
2017-09-04T00:04:29.374Z,100791
2017-09-04T00:06:59.686Z,100789
2017-09-04T00:09:29.583Z,100616
2017-09-04T00:11:59.917Z,100786
2017-09-04T00:14:29.813Z,100786
2017-09-04T00:17:00.039Z,100776
2017-09-04T00:19:29.978Z,100765
2017-09-04T00:21:59.943Z,100751
2017-09-04T00:24:29.828Z,100782
2017-09-04T00:26:59.709Z,100775
2017-09-04T00:29:30.071Z,100776
2017-09-04T00:31:59.994Z,100778
2017-09-04T00:34:29.962Z,100782
2017-09-04T00:36:59.897Z,100778
2017-09-04T00:39:29.857Z,100786
2017-09-04T00:42:00.115Z,100779
2017-09-04T00:44:30.002Z,100777
2017-09-04T00:47:00.477Z,100774
2017-09-04T00:49:30.383Z,100766
2017-09-04T00:52:00.723Z,100765
2017-09-04T00:54:30.618Z,100770
2017-09-04T00:57:00.901Z,100774
2017-09-04T00:59:30.817Z,100768
2017-09-04T01:02:01.061Z,100768
2017-09-04T01:04:31.001Z,100771
2017-09-04T01:07:00.921Z,100774
2017-09-04T01:09:30.841Z,100774
2017-09-04T01:12:00.797Z,100705
2017-09-04T01:14:31.057Z,100770
2017-09-04T01:17:00.955Z,100768
2017-09-04T01:19:30.954Z,100772
2017-09-04T01:22:00.865Z,100773
2017-09-04T01:24:30.782Z,100781
2017-09-04T01:27:01.138Z,100776
2017-09-04T01:29:31.068Z,100787
2017-09-04T01:32:01.351Z,100785
2017-09-04T01:34:31.249Z,100786
2017-09-04T01:37:01.624Z,100787
2017-09-04T01:39:31.580Z,100784
2017-09-04T01:42:01.956Z,100791
2017-09-04T01:44:31.896Z,100789
2017-09-04T01:47:02.267Z,100691
2017-09-04T01:49:32.186Z,100783
2017-09-04T01:52:02.507Z,100788
2017-09-04T01:54:32.396Z,100785
2017-09-04T01:57:02.783Z,100785
2017-09-04T01:59:32.672Z,100791
2017-09-04T02:02:02.899Z,100777
2017-09-04T02:04:32.816Z,100775
2017-09-04T02:07:03.225Z,100775
2017-09-04T02:09:33.133Z,100773
2017-09-04T02:12:03.478Z,100364
2017-09-04T02:14:33.360Z,100775
2017-09-04T02:17:03.693Z,100771
2017-09-04T02:19:33.654Z,100778
2017-09-04T02:22:03.959Z,100772
2017-09-04T02:24:33.897Z,100767
2017-09-04T02:27:04.296Z,100759
2017-09-04T02:29:34.239Z,100771
2017-09-04T02:32:04.516Z,100767
2017-09-04T02:34:34.408Z,100762
2017-09-04T02:37:04.851Z,100669
2017-09-04T02:39:34.778Z,100755
2017-09-04T02:42:05.096Z,100751
2017-09-04T02:44:35.117Z,100753
2017-09-04T02:47:05.447Z,100761
2017-09-04T02:49:35.372Z,100738
2017-09-04T02:52:05.684Z,100752
2017-09-04T02:54:35.607Z,100761
2017-09-04T02:57:05.921Z,100765
2017-09-04T02:59:35.791Z,100760
2017-09-04T03:02:06.221Z,100750
2017-09-04T03:04:36.126Z,100747
2017-09-04T03:07:06.384Z,100745
2017-09-04T03:09:36.274Z,100737
2017-09-04T03:12:06.631Z,100748
2017-09-04T03:14:36.841Z,100736
2017-09-04T03:17:07.177Z,100745
2017-09-04T03:19:37.062Z,100752
2017-09-04T03:22:06.978Z,100751
2017-09-04T03:24:36.880Z,100751
2017-09-04T03:27:06.786Z,100760
2017-09-04T03:29:37.032Z,100754
2017-09-04T03:32:06.983Z,100755
2017-09-04T03:34:36.909Z,100745
2017-09-04T03:37:07.329Z,100750
2017-09-04T03:39:37.202Z,100713
2017-09-04T03:42:07.212Z,100754
2017-09-04T03:44:37.207Z,100758
2017-09-04T03:47:07.530Z,100750
2017-09-04T03:49:37.407Z,100775
2017-09-04T03:52:07.622Z,100744
2017-09-04T03:54:37.503Z,100750
2017-09-04T03:57:07.734Z,100753
2017-09-04T03:59:37.589Z,100758
2017-09-04T04:02:07.954Z,100734
2017-09-04T04:04:37.882Z,100747
2017-09-04T04:07:08.206Z,100751
2017-09-04T04:09:38.087Z,100752
2017-09-04T04:12:08.343Z,100756
2017-09-04T04:14:38.199Z,100751
2017-09-04T04:17:08.466Z,100750
2017-09-04T04:19:38.349Z,100749
2017-09-04T04:22:08.706Z,100746
2017-09-04T04:24:38.563Z,100752
2017-09-04T04:27:08.943Z,100752
2017-09-04T04:29:38.860Z,100750
2017-09-04T04:32:09.303Z,100750
2017-09-04T04:34:39.206Z,100751
2017-09-04T04:37:09.520Z,100753
2017-09-04T04:39:39.409Z,100753
2017-09-04T04:42:09.661Z,100755
2017-09-04T04:44:39.692Z,100752
2017-09-04T04:47:10.050Z,100754
2017-09-04T04:49:39.958Z,100753
2017-09-04T04:52:09.880Z,100756
2017-09-04T04:54:39.770Z,100744
2017-09-04T04:57:09.713Z,100752
2017-09-04T04:59:40.000Z,100747
2017-09-04T05:02:10.659Z,100746
2017-09-04T05:04:41.020Z,100748
2017-09-04T05:07:10.918Z,100751
2017-09-04T05:09:41.283Z,100743
2017-09-04T05:12:11.196Z,100748
2017-09-04T05:14:41.543Z,100733
2017-09-04T05:17:11.455Z,100756
2017-09-04T05:19:41.736Z,100755
2017-09-04T05:22:11.716Z,100367
2017-09-04T05:24:41.997Z,100761
2017-09-04T05:27:11.887Z,100473
2017-09-04T05:29:42.222Z,100762
2017-09-04T05:32:12.134Z,100759
2017-09-04T05:34:42.469Z,100755
2017-09-04T05:37:13.511Z,100761
2017-09-04T05:39:43.831Z,100763
2017-09-04T05:42:13.751Z,100754
2017-09-04T05:44:44.082Z,100756
2017-09-04T05:47:14.109Z,100759
2017-09-04T05:49:44.464Z,100757
2017-09-04T05:52:14.435Z,100761
2017-09-04T05:54:44.721Z,100760
2017-09-04T05:57:14.655Z,100762
2017-09-04T05:59:44.919Z,100759
2017-09-04T06:02:14.816Z,100759
2017-09-04T06:04:45.045Z,100762
2017-09-04T06:07:15.808Z,100760
2017-09-04T06:09:46.173Z,100755
2017-09-04T06:12:16.072Z,100753
2017-09-04T06:14:46.488Z,100758
2017-09-04T06:17:16.414Z,100756
2017-09-04T06:19:46.717Z,100753
2017-09-04T06:22:18.304Z,100766
2017-09-04T06:24:48.564Z,100768
2017-09-04T06:27:18.478Z,100751
2017-09-04T06:29:48.753Z,100754
2017-09-04T06:32:18.654Z,100758
2017-09-04T06:34:49.016Z,100761
2017-09-04T06:37:18.946Z,100753
2017-09-04T06:39:49.225Z,100758
2017-09-04T06:42:19.141Z,100746
2017-09-04T06:44:49.454Z,100744
2017-09-04T06:47:19.431Z,100743
2017-09-04T06:49:49.676Z,100752
2017-09-04T06:52:19.567Z,100747
2017-09-04T06:54:49.846Z,100749
2017-09-04T06:57:19.803Z,100747
2017-09-04T06:59:50.037Z,100757
2017-09-04T07:02:19.931Z,100743
2017-09-04T07:04:49.920Z,100764
2017-09-04T07:07:19.942Z,100755
2017-09-04T07:09:49.845Z,100748
2017-09-04T07:12:20.111Z,100756
2017-09-04T07:14:50.034Z,100752
2017-09-04T07:17:19.934Z,100758
2017-09-04T07:19:49.845Z,100762
2017-09-04T07:22:19.751Z,100767
2017-09-04T07:24:50.019Z,100776
2017-09-04T07:27:19.950Z,100771
2017-09-04T07:29:49.876Z,100772
2017-09-04T07:32:19.761Z,100768
2017-09-04T07:34:49.661Z,100774
2017-09-04T07:37:20.018Z,100774
2017-09-04T07:39:49.936Z,100778
2017-09-04T07:42:20.215Z,100777
2017-09-04T07:44:50.112Z,100781
2017-09-04T07:47:20.489Z,100786
2017-09-04T07:49:50.467Z,100791
2017-09-04T07:52:20.743Z,100790
2017-09-04T07:54:50.694Z,100793
2017-09-04T07:57:21.088Z,100798
2017-09-04T07:59:50.990Z,100798
2017-09-04T08:02:21.297Z,100792
2017-09-04T08:04:51.231Z,100796
2017-09-04T08:07:21.538Z,100798
2017-09-04T08:09:51.452Z,100799
2017-09-04T08:12:21.783Z,100795
2017-09-04T08:14:51.746Z,100803
2017-09-04T08:17:22.189Z,100801
2017-09-04T08:19:52.063Z,100802
2017-09-04T08:22:22.369Z,100809
2017-09-04T08:24:52.307Z,100814
2017-09-04T08:27:22.673Z,100812
2017-09-04T08:29:52.738Z,100815
2017-09-04T08:32:23.050Z,100811
2017-09-04T08:34:53.115Z,100815
2017-09-04T08:37:23.457Z,100816
2017-09-04T08:39:53.400Z,100820
2017-09-04T08:42:24.006Z,100817
2017-09-04T08:44:54.007Z,100823
2017-09-04T08:47:24.346Z,100818
2017-09-04T08:49:54.380Z,100824
2017-09-04T08:52:24.680Z,100818
2017-09-04T08:54:54.607Z,100828
2017-09-04T08:57:24.854Z,100836
2017-09-04T08:59:54.790Z,100843
2017-09-04T09:02:25.034Z,100844
2017-09-04T09:04:54.956Z,100845
2017-09-04T09:07:24.893Z,100844
2017-09-04T09:09:54.827Z,100847
2017-09-04T09:12:24.765Z,100857
2017-09-04T09:14:55.014Z,100856
2017-09-04T09:17:24.985Z,100852
2017-09-04T09:19:55.267Z,100848
2017-09-04T09:22:25.183Z,100786
2017-09-04T09:24:55.393Z,100856
2017-09-04T09:27:25.369Z,100866
2017-09-04T09:29:55.993Z,100860
2017-09-04T09:32:25.947Z,100857
2017-09-04T09:34:59.261Z,100863
2017-09-04T09:37:29.308Z,100859
2017-09-04T09:39:59.551Z,100852
2017-09-04T09:42:29.457Z,100853
2017-09-04T09:44:59.747Z,100863
2017-09-04T09:47:29.660Z,100858
2017-09-04T09:49:59.963Z,100857
2017-09-04T09:52:29.963Z,100860
2017-09-04T09:55:00.320Z,100852
2017-09-04T09:57:31.085Z,100835
2017-09-04T10:00:01.412Z,100858
2017-09-04T10:02:31.292Z,100866
2017-09-04T10:05:01.492Z,100863
2017-09-04T10:07:31.429Z,100863
2017-09-04T10:10:01.679Z,100866
2017-09-04T10:12:31.567Z,100869
2017-09-04T10:15:01.768Z,100866
2017-09-04T10:17:31.756Z,100863
2017-09-04T10:20:02.136Z,100870
2017-09-04T10:22:32.041Z,100869
2017-09-04T10:25:02.293Z,100866
2017-09-04T10:27:32.155Z,100860
2017-09-04T10:30:02.336Z,100866
2017-09-04T10:32:32.222Z,100858
2017-09-04T10:35:02.619Z,100857
2017-09-04T10:37:32.628Z,100862
2017-09-04T10:40:02.934Z,100860
2017-09-04T10:42:32.963Z,100858
2017-09-04T10:45:03.189Z,100864
2017-09-04T10:47:33.107Z,100861
2017-09-04T10:50:03.643Z,100862
2017-09-04T10:52:33.540Z,100870
2017-09-04T10:55:03.856Z,100861
2017-09-04T10:57:33.824Z,100865
2017-09-04T11:00:04.107Z,100861
2017-09-04T11:02:34.021Z,100854
2017-09-04T11:05:03.932Z,100853
2017-09-04T11:07:33.800Z,100855
2017-09-04T11:10:03.736Z,100856
2017-09-04T11:12:33.920Z,100828
2017-09-04T11:15:03.789Z,100847
2017-09-04T11:17:33.980Z,100846
2017-09-04T11:20:03.869Z,100838
2017-09-04T11:22:33.776Z,100837
2017-09-04T11:25:03.757Z,100835
2017-09-04T11:30:31.304Z,100844
2017-09-04T11:33:01.185Z,100837
2017-09-04T11:35:31.547Z,100836
2017-09-04T11:38:01.479Z,100834
2017-09-04T11:40:31.695Z,100839
2017-09-04T11:43:02.086Z,100846
2017-09-04T11:45:33.637Z,100835
2017-09-04T11:48:03.493Z,100844
2017-09-04T11:50:33.515Z,100836
2017-09-04T11:53:03.403Z,100844
2017-09-04T11:55:33.292Z,100829
2017-09-04T11:58:03.652Z,100849
2017-09-04T12:00:33.544Z,100846
2017-09-04T12:03:03.926Z,100848
2017-09-04T12:05:33.823Z,100844
2017-09-04T12:08:04.211Z,100850
2017-09-04T12:10:34.242Z,100844
2017-09-04T12:13:04.547Z,100843
2017-09-04T12:15:34.401Z,100850
2017-09-04T12:18:04.677Z,100849
2017-09-04T12:20:34.547Z,100768
2017-09-04T12:23:04.863Z,100843
2017-09-04T12:25:34.757Z,100835
2017-09-04T12:28:05.080Z,100816
2017-09-04T12:30:34.963Z,100846
2017-09-04T12:33:04.846Z,100845
2017-09-04T12:35:34.828Z,100839
2017-09-04T12:38:04.709Z,100853
2017-09-04T12:40:35.067Z,100843
2017-09-04T12:43:05.003Z,100830
2017-09-04T12:45:35.202Z,100830
2017-09-04T12:48:05.137Z,100825
2017-09-04T12:50:35.435Z,100827
2017-09-04T12:53:05.606Z,100831
2017-09-04T12:55:35.880Z,100809
2017-09-04T12:58:05.830Z,100821
2017-09-04T13:00:36.061Z,100822
2017-09-04T13:03:06.015Z,100818
2017-09-04T13:05:35.932Z,100824
2017-09-04T13:08:05.819Z,100816
2017-09-04T13:10:41.513Z,100826
2017-09-04T13:13:16.232Z,100821
2017-09-04T13:15:51.654Z,100822
2017-09-04T13:21:26.745Z,100829
2017-09-04T13:24:13.515Z,100823
2017-09-04T13:26:48.855Z,100828
2017-09-04T13:29:24.914Z,100820
2017-09-04T13:35:12.782Z,100812
2017-09-04T13:37:48.171Z,100813
2017-09-04T13:43:28.932Z,100820
2017-09-04T13:46:04.949Z,100833
2017-09-04T13:48:40.423Z,100831
2017-09-04T13:51:16.351Z,100828
2017-09-04T13:53:51.927Z,100836
2017-09-04T13:56:37.143Z,100822
2017-09-04T13:59:12.538Z,100821
2017-09-04T14:04:53.214Z,100827
2017-09-04T14:10:44.530Z,100832
2017-09-04T14:13:20.543Z,100833
2017-09-04T14:16:08.347Z,100837
2017-09-04T14:18:38.643Z,100827
2017-09-04T14:21:09.332Z,100837
2017-09-04T14:23:39.509Z,100833
2017-09-04T14:26:09.586Z,100839
2017-09-04T14:28:39.943Z,100837
2017-09-04T14:31:09.863Z,100835
2017-09-04T14:33:40.247Z,100837
2017-09-04T14:36:10.126Z,100828
2017-09-04T14:38:40.382Z,100827
2017-09-04T14:41:11.842Z,100829
2017-09-04T14:43:43.714Z,100831
2017-09-04T14:46:14.542Z,100844
2017-09-04T14:48:44.770Z,100845
2017-09-04T14:51:14.689Z,100844
2017-09-04T14:53:44.932Z,100844
2017-09-04T14:56:14.912Z,100839
2017-09-04T14:58:45.233Z,100850
2017-09-04T15:01:15.930Z,100850
2017-09-04T15:03:46.145Z,100856
2017-09-04T15:06:16.093Z,100859
2017-09-04T15:08:46.305Z,100857
2017-09-04T15:11:16.196Z,100862
2017-09-04T15:13:46.369Z,100860
2017-09-04T15:16:16.280Z,100860
2017-09-04T15:18:46.492Z,100860
2017-09-04T15:21:16.558Z,100866
2017-09-04T15:23:46.786Z,100872
2017-09-04T15:26:16.699Z,100867
2017-09-04T15:28:46.859Z,100864
2017-09-04T15:31:16.748Z,100867
2017-09-04T15:33:47.162Z,100870
2017-09-04T15:36:17.110Z,100874
2017-09-04T15:38:47.288Z,100876
2017-09-04T15:41:17.171Z,100884
2017-09-04T15:43:47.442Z,100882
2017-09-04T15:46:17.338Z,100886
2017-09-04T15:48:47.514Z,100879
2017-09-04T15:51:17.400Z,100885
2017-09-04T15:53:47.841Z,100882
2017-09-04T15:56:17.824Z,100884
2017-09-04T15:58:49.704Z,100836
2017-09-04T16:01:20.873Z,100886
2017-09-04T16:03:51.251Z,100893
2017-09-04T16:06:21.814Z,100896
2017-09-04T16:08:52.064Z,100905
2017-09-04T16:11:22.538Z,100898
2017-09-04T16:13:53.732Z,100916
2017-09-04T16:16:23.656Z,100729
2017-09-04T16:19:01.381Z,100907
2017-09-04T16:21:48.108Z,100911
2017-09-04T16:24:37.137Z,100901
2017-09-04T16:27:28.515Z,100911
2017-09-04T16:29:59.163Z,100908
2017-09-04T16:32:34.901Z,100907
2017-09-04T16:35:06.961Z,100911
2017-09-04T16:37:39.475Z,100907
2017-09-04T16:40:10.256Z,100909
2017-09-04T16:42:55.076Z,100912
2017-09-04T16:45:42.165Z,100902
2017-09-04T16:48:13.852Z,100904
2017-09-04T16:50:59.837Z,100907
2017-09-04T16:53:33.299Z,100908
2017-09-04T16:59:15.168Z,100913
2017-09-04T17:01:46.439Z,100914
2017-09-04T17:04:16.403Z,100909
2017-09-04T17:06:46.675Z,100908
2017-09-04T17:09:16.617Z,100908
2017-09-04T17:11:47.635Z,100915
2017-09-04T17:14:17.581Z,100916
2017-09-04T17:16:49.427Z,100865
2017-09-04T17:19:19.343Z,100807
2017-09-04T17:21:51.865Z,100925
2017-09-04T17:24:21.839Z,100908
2017-09-04T17:26:52.185Z,100910
2017-09-04T17:29:22.136Z,100915
2017-09-04T17:31:52.442Z,100917
2017-09-04T17:34:23.698Z,100911
2017-09-04T17:36:54.288Z,100880
2017-09-04T17:39:24.227Z,100913
2017-09-04T17:41:54.552Z,100914
2017-09-04T17:44:25.793Z,100929
2017-09-04T17:46:56.011Z,100932
2017-09-04T17:49:26.956Z,100934
2017-09-04T17:51:57.226Z,100935
2017-09-04T17:54:27.263Z,100939
2017-09-04T17:56:58.462Z,100935
2017-09-04T17:59:28.454Z,100939
2017-09-04T18:01:58.696Z,100941
2017-09-04T18:04:28.664Z,100936
2017-09-04T18:06:59.068Z,100933
2017-09-04T18:09:28.974Z,100938
2017-09-04T18:11:59.427Z,100934
2017-09-04T18:14:29.337Z,100936
2017-09-04T18:16:59.599Z,100943
2017-09-04T18:19:29.720Z,100944
2017-09-04T18:22:00.123Z,100940
2017-09-04T18:24:30.053Z,100962
2017-09-04T18:27:00.553Z,100962
2017-09-04T18:29:30.446Z,100960
2017-09-04T18:32:00.966Z,100967
2017-09-04T18:34:31.029Z,100964
2017-09-04T18:37:01.717Z,100983
2017-09-04T18:39:32.832Z,100979
2017-09-04T18:42:03.173Z,100971
2017-09-04T18:44:34.876Z,100980
2017-09-04T18:59:54.952Z,100984
2017-09-04T19:02:25.610Z,100977
2017-09-04T19:04:55.760Z,100979
2017-09-04T19:07:26.163Z,100982
2017-09-04T19:09:56.242Z,100984
2017-09-04T19:12:27.993Z,100990
2017-09-04T19:14:58.020Z,100999
2017-09-04T19:17:28.339Z,100996
2017-09-04T19:19:58.560Z,100993
2017-09-04T19:22:29.682Z,100997
2017-09-04T19:24:59.958Z,100996
2017-09-04T19:30:06.433Z,100997
2017-09-04T19:32:36.751Z,101002
2017-09-04T19:35:06.780Z,101001
2017-09-04T19:37:37.077Z,101004
2017-09-04T19:40:07.063Z,101006
2017-09-04T19:42:37.552Z,101010
2017-09-04T19:45:07.503Z,100651
2017-09-04T19:47:37.994Z,101008
2017-09-04T19:50:08.185Z,101012
2017-09-04T19:52:38.502Z,101010
2017-09-04T19:55:09.475Z,101019
2017-09-04T19:57:39.768Z,101016
2017-09-04T20:00:09.723Z,101020
2017-09-04T20:02:40.061Z,101018
2017-09-04T20:05:10.083Z,101014
2017-09-04T20:07:40.551Z,101032
2017-09-04T20:10:10.628Z,101023
2017-09-04T20:12:40.895Z,101037
2017-09-04T20:15:10.846Z,101021
2017-09-04T20:17:41.125Z,101060
2017-09-04T20:20:11.024Z,101020
2017-09-04T20:22:40.924Z,101023
2017-09-04T20:25:10.850Z,101024
2017-09-04T20:27:40.831Z,101016
2017-09-04T20:30:11.225Z,101019
2017-09-04T20:32:41.314Z,101026
2017-09-04T20:35:11.746Z,101027
2017-09-04T20:37:41.741Z,101040
2017-09-04T20:40:12.086Z,101035
2017-09-04T20:42:42.055Z,101038
2017-09-04T20:45:12.354Z,101043
2017-09-04T20:47:42.340Z,101036
2017-09-04T20:50:12.609Z,101019
2017-09-04T20:52:42.620Z,101040
2017-09-04T20:55:13.040Z,101049
2017-09-04T20:57:42.970Z,101048
2017-09-04T21:00:12.898Z,101050
2017-09-04T21:02:42.838Z,101043
2017-09-04T21:05:12.803Z,101045
2017-09-04T21:07:43.047Z,101037
2017-09-04T21:10:12.963Z,101041
2017-09-04T21:12:43.011Z,101054
2017-09-04T21:15:12.969Z,101051
2017-09-04T21:17:42.927Z,101024
2017-09-04T21:20:13.309Z,101049
2017-09-04T21:22:43.281Z,101025
2017-09-04T21:25:13.768Z,101051
2017-09-04T21:27:43.702Z,101049
2017-09-04T21:30:14.091Z,101048
2017-09-04T21:32:44.056Z,101047
2017-09-04T21:35:14.322Z,101049
2017-09-04T21:37:47.556Z,101058
2017-09-04T21:40:17.891Z,101052
2017-09-04T21:42:47.952Z,101060
2017-09-04T21:45:19.198Z,101056
2017-09-04T21:47:49.297Z,101054
2017-09-04T21:50:19.670Z,101055
2017-09-04T21:52:49.682Z,101060
2017-09-04T21:55:19.990Z,101055
2017-09-04T21:57:49.996Z,101059
2017-09-04T22:00:20.352Z,101055
2017-09-04T22:02:50.308Z,101054
2017-09-04T22:05:20.786Z,101052
2017-09-04T22:07:50.790Z,101047
2017-09-04T22:10:21.088Z,101053
2017-09-04T22:12:51.002Z,101043
2017-09-04T22:15:21.045Z,101046
2017-09-04T22:17:50.936Z,101043
2017-09-04T22:20:20.845Z,101063
2017-09-04T22:22:51.127Z,101052
2017-09-04T22:25:21.212Z,101046
2017-09-04T22:27:51.554Z,101058
2017-09-04T22:30:21.665Z,101057
2017-09-04T22:32:51.925Z,101053
2017-09-04T22:35:21.850Z,101063
2017-09-04T22:37:53.084Z,101062
2017-09-04T22:40:23.300Z,101061
2017-09-04T22:42:53.791Z,101061
2017-09-04T22:45:23.850Z,101065
2017-09-04T22:47:54.228Z,101067
2017-09-04T22:50:24.159Z,101068
2017-09-04T22:52:54.573Z,101051
2017-09-04T22:55:24.493Z,101074
2017-09-04T22:57:54.891Z,101073
2017-09-04T23:00:25.162Z,101070
2017-09-04T23:02:55.619Z,101078
2017-09-04T23:05:25.563Z,101079
2017-09-04T23:07:55.991Z,101083
2017-09-04T23:10:25.901Z,101076
2017-09-04T23:12:56.117Z,101081
2017-09-04T23:15:26.017Z,101074
2017-09-04T23:17:55.995Z,101067
2017-09-04T23:20:25.960Z,101065
2017-09-04T23:22:55.946Z,101069
2017-09-04T23:25:26.291Z,101077
2017-09-04T23:27:56.208Z,101074
2017-09-04T23:30:26.542Z,100955
2017-09-04T23:32:56.774Z,101077
2017-09-04T23:35:27.179Z,101075
2017-09-04T23:37:57.095Z,101078
2017-09-04T23:40:27.392Z,101075
2017-09-04T23:42:57.417Z,101079
2017-09-04T23:45:27.741Z,101080
2017-09-04T23:47:57.730Z,101079
2017-09-04T23:50:28.079Z,101086
2017-09-04T23:52:58.002Z,101078
2017-09-04T23:55:28.367Z,101080
2017-09-04T23:57:58.291Z,101092
